Weather History for Charlotte, MI

Change the Weather History Date:

Monday, September 24, 2012

  Actual Average (KLAN) Record (KLAN)
Temperature  
Mean Temperature 51 °F 59 °F  
Max Temperature 63 °F 69 °F 90 °F (1891)
Min Temperature 39 °F 48 °F 26 °F (1976)
Degree Days  
Heating Degree Days 14 7  
Month to date heating degree days 100  
Since 1 July heating degree days 135  
Cooling Degree Days 0 1  
Month to date cooling degree days 56  
Year to date cooling degree days 613  
Growing Degree Days 1 (Base 50)    
Moisture  
Dew Point 36 °F    
Average Humidity 60    
Maximum Humidity 95    
Minimum Humidity 30    
Precipitation  
Precipitation 0.00 in 0.12 in 1.33 in (1865)
Month to date precipitation 2.82  
Year to date precipitation 23.91  
Snow  
Snow 0.00 in 0.00 in 0.00 in ()
Month to date snowfall 0.0  
Since 1 July snowfall 0.0  
Since 1 September snowfall 0.0  
Snow Depth -    
Sea Level Pressure  
Sea Level Pressure 30.06 in    
Wind  
Wind Speed 7 mph (SSW)    
Max Wind Speed 18 mph    
Max Gust Speed 26 mph    
Visibility 10 miles    
Events      
T = Trace of Precipitation, MM = Missing Value Source: NWS Daily Summary

Daily Weather History Graph

Daily Weather History Graph

Search for Another Location

Airport:

Trip Planner

Search our weather history database for the weather conditions in past years. The results will help you decide how hot, cold, wet, or windy it might be!

Date:

Astronomy

Sep. 24, 2012 Rise Set
Actual Time 7:29 AM EDT 7:32 PM EDT
Civil Twilight 7:01 AM EDT 8:00 PM EDT
Nautical Twilight 6:28 AM EDT 8:32 PM EDT
Astronomical Twilight 5:54 AM EDT 9:06 PM EDT
Moon 4:23 PM EDT (9/24) 1:38 AM EDT (9/24)
Length of Visible Light 12h 59m
Length of Day
12h 02m
Waxing Gibbous, 70% of the Moon is Illuminated
Sep 24
Waxing Gibbous
Sep 29
Full
Oct 8
Last Quarter
Oct 15
New
Oct 21
First Quarter

Hourly Weather History & Observations

Time (EDT) Temp. Windchill Dew Point Humidity Pressure Visibility Wind Dir Wind Speed Gust Speed Precip Events Conditions
12:15 AM 42.8 °F - 39.0 °F 86% 30.20 in 10.0 mi Calm Calm - N/A   Scattered Clouds
12:35 AM 40.5 °F 38.4 °F 37.6 °F 89% 30.19 in 10.0 mi South 3.5 mph - N/A   Clear
12:55 AM 40.6 °F 38.6 °F 38.3 °F 91% 30.19 in 10.0 mi SSW 3.5 mph - N/A   Clear
1:16 AM 39.0 °F 36.8 °F 37.4 °F 94% 30.18 in 10.0 mi SSW 3.5 mph - N/A   Clear
1:35 AM 39.7 °F 37.6 °F 38.3 °F 95% 30.18 in 10.0 mi SSW 3.5 mph - N/A   Scattered Clouds
1:56 AM 40.1 °F 38.0 °F 38.5 °F 94% 30.18 in 10.0 mi SSW 3.5 mph - N/A   Scattered Clouds
2:15 AM 40.1 °F 38.0 °F 38.5 °F 94% 30.18 in 10.0 mi SSW 3.5 mph - N/A   Mostly Cloudy
2:55 AM 40.1 °F 38.0 °F 38.7 °F 95% 30.18 in 10.0 mi SSW 3.5 mph - N/A   Scattered Clouds
3:15 AM 40.5 °F 38.4 °F 39.2 °F 95% 30.18 in 10.0 mi SSW 3.5 mph - N/A   Scattered Clouds
3:35 AM 41.0 °F 39.0 °F 39.4 °F 94% 30.18 in 10.0 mi SSW 3.5 mph - N/A   Mostly Cloudy
3:55 AM 41.0 °F 39.0 °F 39.6 °F 95% 30.18 in 10.0 mi SSW 3.5 mph - N/A   Mostly Cloudy
4:15 AM 40.8 °F 38.8 °F 39.4 °F 95% 30.17 in 10.0 mi SSW 3.5 mph - N/A   Scattered Clouds
4:35 AM 41.0 °F 38.0 °F 39.2 °F 93% 30.17 in 10.0 mi SSW 4.6 mph - N/A   Scattered Clouds
4:55 AM 40.6 °F 37.5 °F 38.8 °F 93% 30.17 in 10.0 mi SSW 4.6 mph - N/A   Scattered Clouds
5:16 AM 40.5 °F 38.4 °F 38.7 °F 93% 30.17 in 10.0 mi SW 3.5 mph - N/A   Clear
5:55 AM 39.2 °F 37.0 °F 37.4 °F 93% 30.16 in 10.0 mi SSW 3.5 mph - N/A   Clear
6:15 AM 39.6 °F 37.4 °F 37.6 °F 93% 30.16 in 10.0 mi SSW 3.5 mph - N/A   Clear
6:35 AM 39.2 °F 37.0 °F 37.2 °F 93% 30.16 in 10.0 mi SSW 3.5 mph - N/A   Clear
6:55 AM 39.2 °F 35.9 °F 37.0 °F 92% 30.16 in 10.0 mi SW 4.6 mph - N/A   Clear
7:15 AM 39.2 °F 35.9 °F 37.0 °F 92% 30.16 in 10.0 mi SSW 4.6 mph - N/A   Clear
7:35 AM 39.4 °F 35.2 °F 37.0 °F 91% 30.16 in 10.0 mi SSW 5.8 mph - N/A   Clear
7:56 AM 40.1 °F 36.1 °F 37.6 °F 91% 30.16 in 10.0 mi SSW 5.8 mph - N/A   Clear
8:15 AM 41.0 °F 37.1 °F 38.3 °F 90% 30.16 in 10.0 mi SSW 5.8 mph - N/A   Clear
8:35 AM 43.0 °F 38.8 °F 39.2 °F 86% 30.16 in 10.0 mi SW 6.9 mph - N/A   Clear
8:56 AM 45.1 °F 40.3 °F 39.6 °F 81% 30.16 in 10.0 mi SW 9.2 mph - N/A   Clear
9:15 AM 46.9 °F - 39.2 °F 74% 30.16 in 10.0 mi SW 9.2 mph - N/A   Clear
9:36 AM 48.9 °F - 39.4 °F 70% 30.16 in 10.0 mi SW 11.5 mph - N/A   Clear
9:55 AM 50.7 °F - 39.2 °F 65% 30.15 in 10.0 mi SW 12.7 mph - N/A   Clear
10:16 AM 52.7 °F - 38.8 °F 59% 30.15 in 10.0 mi SW 13.8 mph 19.6 mph N/A   Clear
10:35 AM 53.2 °F - 37.4 °F 55% 30.14 in 10.0 mi SW 16.1 mph 21.9 mph N/A   Clear
10:55 AM 54.7 °F - 36.9 °F 51% 30.14 in 10.0 mi SW 13.8 mph 19.6 mph N/A   Clear
11:15 AM 56.1 °F - 35.8 °F 46% 30.13 in 10.0 mi SW 15.0 mph 18.4 mph N/A   Clear
11:41 AM 57.4 °F - 37.2 °F 47% 30.11 in 10.0 mi SW 17.3 mph 26.5 mph N/A   Clear
11:55 AM 57.4 °F - 37.6 °F 48% 30.10 in 10.0 mi SW 18.4 mph 23.0 mph N/A   Clear
12:15 PM 57.4 °F - 37.9 °F 48% 30.10 in 10.0 mi WSW 16.1 mph 21.9 mph N/A   Clear
12:35 PM 58.3 °F - 38.1 °F 47% 30.09 in 10.0 mi SW 12.7 mph 23.0 mph N/A   Clear
12:55 PM 59.5 °F - 37.6 °F 44% 30.09 in 10.0 mi SW 16.1 mph 21.9 mph N/A   Clear
1:15 PM 59.7 °F - 34.5 °F 39% 30.08 in 10.0 mi SW 17.3 mph 23.0 mph N/A   Clear
1:35 PM 60.8 °F - 34.0 °F 37% 30.07 in 10.0 mi SW 16.1 mph 21.9 mph N/A   Clear
1:55 PM 61.5 °F - 33.4 °F 35% 30.06 in 10.0 mi SW 15.0 mph 21.9 mph N/A   Clear
2:16 PM 61.5 °F - 33.6 °F 35% 30.04 in 10.0 mi SSW 13.8 mph 23.0 mph N/A   Clear
2:35 PM 62.6 °F - 32.0 °F 32% 30.03 in 10.0 mi SW 17.3 mph 21.9 mph N/A   Clear
2:56 PM 62.4 °F - 32.2 °F 32% 30.02 in 10.0 mi West 11.5 mph 25.3 mph N/A   Clear
3:15 PM 62.4 °F - 31.8 °F 32% 30.01 in 10.0 mi SW 13.8 mph 24.2 mph N/A   Clear
3:35 PM 62.6 °F - 32.0 °F 32% 30.00 in 10.0 mi SW 10.4 mph 21.9 mph N/A   Clear
3:55 PM 63.0 °F - 32.4 °F 32% 29.98 in 10.0 mi SW 18.4 mph 23.0 mph N/A   Clear
4:15 PM 63.5 °F - 33.1 °F 32% 29.98 in 10.0 mi SW 16.1 mph 24.2 mph N/A   Clear
4:36 PM 63.7 °F - 32.2 °F 31% 29.97 in 10.0 mi WSW 13.8 mph 19.6 mph N/A   Clear
4:55 PM 63.5 °F - 32.5 °F 31% 29.96 in 10.0 mi SW 11.5 mph 23.0 mph N/A   Clear
5:16 PM 63.5 °F - 32.0 °F 31% 29.95 in 10.0 mi SSW 13.8 mph 19.6 mph N/A   Clear
5:35 PM 63.5 °F - 31.3 °F 30% 29.95 in 10.0 mi SW 16.1 mph 26.5 mph N/A   Clear
5:55 PM 63.5 °F - 31.5 °F 30% 29.94 in 10.0 mi SW 15.0 mph 21.9 mph N/A   Clear
6:15 PM 62.8 °F - 31.3 °F 31% 29.93 in 10.0 mi SSW 11.5 mph 17.3 mph N/A   Clear
6:35 PM 62.1 °F - 31.8 °F 32% 29.93 in 10.0 mi SSW 11.5 mph 17.3 mph N/A   Clear
6:55 PM 61.3 °F - 31.8 °F 33% 29.92 in 10.0 mi SSW 10.4 mph 16.1 mph N/A   Clear
7:15 PM 60.6 °F - 31.1 °F 33% 29.91 in 10.0 mi SSW 8.1 mph 16.1 mph N/A   Clear
7:35 PM 59.0 °F - 31.5 °F 35% 29.90 in 10.0 mi SSW 10.4 mph - N/A   Clear
7:56 PM 57.2 °F - 32.0 °F 38% 29.90 in 10.0 mi SSW 9.2 mph - N/A   Clear
8:15 PM 56.3 °F - 32.0 °F 40% 29.89 in 10.0 mi South 10.4 mph - N/A   Clear
8:35 PM 55.4 °F - 32.9 °F 43% 29.89 in 10.0 mi South 9.2 mph - N/A   Clear
8:55 PM 55.6 °F - 32.9 °F 42% 29.89 in 10.0 mi SSW 10.4 mph - N/A   Clear
9:15 PM 55.8 °F - 33.1 °F 42% 29.89 in 10.0 mi SSW 10.4 mph - N/A   Clear
9:35 PM 55.8 °F - 33.1 °F 42% 29.89 in 10.0 mi SSW 11.5 mph - N/A   Clear
9:55 PM 55.8 °F - 33.4 °F 43% 29.90 in 10.0 mi SSW 9.2 mph - N/A   Clear
10:16 PM 55.4 °F - 34.0 °F 44% 29.91 in 10.0 mi SSW 9.2 mph - N/A   Clear
10:35 PM 55.2 °F - 34.2 °F 45% 29.91 in 10.0 mi SW 8.1 mph - N/A   Clear
10:55 PM 54.9 °F - 34.7 °F 47% 29.91 in 10.0 mi SSW 9.2 mph - N/A   Clear
11:15 PM 54.9 °F - 35.1 °F 47% 29.91 in 10.0 mi SSW 8.1 mph - N/A   Clear
11:35 PM 55.4 °F - 35.2 °F 47% 29.91 in 10.0 mi SSW 6.9 mph - N/A   Clear
11:55 PM 55.4 °F - 35.6 °F 47% 29.91 in 10.0 mi SSW 8.1 mph - N/A   Clear